sensor_id;sensor_type;location;lat;lon;timestamp;P1;durP1;ratioP1;P2;durP2;ratioP2
12407;SDS011;6268;48.188;17.134;2023-02-15T00:01:25;13.80;;;12.40;;
12407;SDS011;6268;48.188;17.134;2023-02-15T00:03:54;14.47;;;12.97;;
12407;SDS011;6268;48.188;17.134;2023-02-15T00:06:23;14.27;;;12.87;;
12407;SDS011;6268;48.188;17.134;2023-02-15T00:08:52;14.50;;;12.67;;
12407;SDS011;6268;48.188;17.134;2023-02-15T00:11:23;13.37;;;11.80;;
12407;SDS011;6268;48.188;17.134;2023-02-15T00:14:09;13.73;;;11.90;;
12407;SDS011;6268;48.188;17.134;2023-02-15T00:16:42;13.53;;;12.13;;
12407;SDS011;6268;48.188;17.134;2023-02-15T00:19:12;15.60;;;13.03;;
12407;SDS011;6268;48.188;17.134;2023-02-15T00:21:44;14.20;;;12.57;;
12407;SDS011;6268;48.188;17.134;2023-02-15T00:24:15;13.23;;;11.93;;
12407;SDS011;6268;48.188;17.134;2023-02-15T00:26:47;13.73;;;12.33;;
12407;SDS011;6268;48.188;17.134;2023-02-15T00:29:17;13.57;;;11.47;;
12407;SDS011;6268;48.188;17.134;2023-02-15T00:31:47;13.10;;;11.53;;
12407;SDS011;6268;48.188;17.134;2023-02-15T00:34:17;12.03;;;10.83;;
12407;SDS011;6268;48.188;17.134;2023-02-15T00:36:48;12.43;;;11.13;;
12407;SDS011;6268;48.188;17.134;2023-02-15T00:39:18;13.13;;;11.83;;
12407;SDS011;6268;48.188;17.134;2023-02-15T00:41:48;13.53;;;12.10;;
12407;SDS011;6268;48.188;17.134;2023-02-15T00:44:18;14.63;;;12.20;;
12407;SDS011;6268;48.188;17.134;2023-02-15T00:46:46;13.83;;;11.73;;
12407;SDS011;6268;48.188;17.134;2023-02-15T00:49:15;16.10;;;12.33;;
12407;SDS011;6268;48.188;17.134;2023-02-15T00:51:44;14.30;;;12.90;;
12407;SDS011;6268;48.188;17.134;2023-02-15T00:54:13;15.00;;;12.43;;
12407;SDS011;6268;48.188;17.134;2023-02-15T00:56:41;14.17;;;12.77;;
12407;SDS011;6268;48.188;17.134;2023-02-15T00:59:12;13.37;;;12.03;;
12407;SDS011;6268;48.188;17.134;2023-02-15T01:01:41;13.20;;;11.83;;
12407;SDS011;6268;48.188;17.134;2023-02-15T01:04:09;15.77;;;12.80;;
12407;SDS011;6268;48.188;17.134;2023-02-15T01:06:38;13.33;;;12.03;;
12407;SDS011;6268;48.188;17.134;2023-02-15T01:09:07;14.50;;;12.57;;
12407;SDS011;6268;48.188;17.134;2023-02-15T01:11:36;13.77;;;11.87;;
12407;SDS011;6268;48.188;17.134;2023-02-15T01:14:05;14.67;;;11.50;;
12407;SDS011;6268;48.188;17.134;2023-02-15T01:16:35;13.60;;;11.77;;
12407;SDS011;6268;48.188;17.134;2023-02-15T01:19:04;14.03;;;11.83;;
12407;SDS011;6268;48.188;17.134;2023-02-15T01:21:33;13.07;;;11.67;;
12407;SDS011;6268;48.188;17.134;2023-02-15T01:24:02;14.37;;;12.87;;
12407;SDS011;6268;48.188;17.134;2023-02-15T01:26:31;13.27;;;11.97;;
12407;SDS011;6268;48.188;17.134;2023-02-15T01:29:00;17.57;;;13.23;;
12407;SDS011;6268;48.188;17.134;2023-02-15T01:31:28;16.00;;;13.13;;
12407;SDS011;6268;48.188;17.134;2023-02-15T01:33:59;15.63;;;12.70;;
12407;SDS011;6268;48.188;17.134;2023-02-15T01:36:27;14.50;;;12.80;;
12407;SDS011;6268;48.188;17.134;2023-02-15T01:38:57;15.43;;;13.17;;
12407;SDS011;6268;48.188;17.134;2023-02-15T01:41:25;14.40;;;12.90;;
12407;SDS011;6268;48.188;17.134;2023-02-15T01:43:55;15.27;;;13.67;;
12407;SDS011;6268;48.188;17.134;2023-02-15T01:46:27;16.20;;;13.93;;
12407;SDS011;6268;48.188;17.134;2023-02-15T01:49:06;16.53;;;14.17;;
12407;SDS011;6268;48.188;17.134;2023-02-15T01:51:41;17.90;;;13.87;;
12407;SDS011;6268;48.188;17.134;2023-02-15T01:54:15;14.70;;;12.97;;
12407;SDS011;6268;48.188;17.134;2023-02-15T01:56:51;15.90;;;13.57;;
12407;SDS011;6268;48.188;17.134;2023-02-15T01:59:24;15.70;;;13.47;;
12407;SDS011;6268;48.188;17.134;2023-02-15T02:01:54;15.83;;;13.07;;
12407;SDS011;6268;48.188;17.134;2023-02-15T02:04:29;14.93;;;13.40;;
12407;SDS011;6268;48.188;17.134;2023-02-15T02:07:06;16.63;;;14.07;;
12407;SDS011;6268;48.188;17.134;2023-02-15T02:09:37;15.13;;;13.53;;
12407;SDS011;6268;48.188;17.134;2023-02-15T02:12:06;16.33;;;13.50;;
12407;SDS011;6268;48.188;17.134;2023-02-15T02:14:36;17.53;;;13.87;;
12407;SDS011;6268;48.188;17.134;2023-02-15T02:17:09;15.27;;;13.73;;
12407;SDS011;6268;48.188;17.134;2023-02-15T02:19:51;16.23;;;14.53;;
12407;SDS011;6268;48.188;17.134;2023-02-15T02:22:54;16.77;;;14.27;;
12407;SDS011;6268;48.188;17.134;2023-02-15T02:25:58;18.03;;;14.47;;
12407;SDS011;6268;48.188;17.134;2023-02-15T02:29:15;18.03;;;14.13;;
12407;SDS011;6268;48.188;17.134;2023-02-15T02:35:42;15.03;;;13.43;;
12407;SDS011;6268;48.188;17.134;2023-02-15T02:38:23;14.83;;;13.13;;
12407;SDS011;6268;48.188;17.134;2023-02-15T02:41:02;16.83;;;14.63;;
12407;SDS011;6268;48.188;17.134;2023-02-15T02:43:43;17.13;;;14.83;;
12407;SDS011;6268;48.188;17.134;2023-02-15T02:46:24;16.47;;;14.57;;
12407;SDS011;6268;48.188;17.134;2023-02-15T02:49:02;19.63;;;15.13;;
12407;SDS011;6268;48.188;17.134;2023-02-15T02:51:31;21.90;;;15.87;;
12407;SDS011;6268;48.188;17.134;2023-02-15T02:54:00;17.50;;;15.63;;
12407;SDS011;6268;48.188;17.134;2023-02-15T02:56:36;18.97;;;16.90;;
12407;SDS011;6268;48.188;17.134;2023-02-15T02:59:10;22.83;;;16.57;;
12407;SDS011;6268;48.188;17.134;2023-02-15T03:01:46;20.20;;;16.27;;
12407;SDS011;6268;48.188;17.134;2023-02-15T03:04:21;33.67;;;19.67;;
12407;SDS011;6268;48.188;17.134;2023-02-15T03:06:57;28.20;;;19.70;;
12407;SDS011;6268;48.188;17.134;2023-02-15T03:09:31;30.37;;;20.23;;
12407;SDS011;6268;48.188;17.134;2023-02-15T03:12:08;28.27;;;19.83;;
12407;SDS011;6268;48.188;17.134;2023-02-15T03:14:41;31.87;;;20.30;;
12407;SDS011;6268;48.188;17.134;2023-02-15T03:17:16;23.50;;;16.70;;
12407;SDS011;6268;48.188;17.134;2023-02-15T03:19:51;25.47;;;18.30;;
12407;SDS011;6268;48.188;17.134;2023-02-15T03:22:26;26.80;;;17.80;;
12407;SDS011;6268;48.188;17.134;2023-02-15T03:25:02;32.03;;;22.20;;
12407;SDS011;6268;48.188;17.134;2023-02-15T03:27:38;34.03;;;20.80;;
12407;SDS011;6268;48.188;17.134;2023-02-15T03:30:11;32.70;;;22.50;;
12407;SDS011;6268;48.188;17.134;2023-02-15T03:32:45;36.53;;;22.90;;
12407;SDS011;6268;48.188;17.134;2023-02-15T03:35:17;38.47;;;22.40;;
12407;SDS011;6268;48.188;17.134;2023-02-15T03:37:51;44.93;;;28.30;;
12407;SDS011;6268;48.188;17.134;2023-02-15T03:40:28;45.70;;;28.67;;
12407;SDS011;6268;48.188;17.134;2023-02-15T03:43:23;40.80;;;24.70;;
12407;SDS011;6268;48.188;17.134;2023-02-15T03:46:03;31.60;;;22.43;;
12407;SDS011;6268;48.188;17.134;2023-02-15T03:48:39;25.83;;;19.83;;
12407;SDS011;6268;48.188;17.134;2023-02-15T03:51:18;22.70;;;17.73;;
12407;SDS011;6268;48.188;17.134;2023-02-15T03:54:06;23.63;;;17.90;;
12407;SDS011;6268;48.188;17.134;2023-02-15T03:56:39;21.27;;;17.07;;
12407;SDS011;6268;48.188;17.134;2023-02-15T03:59:30;23.43;;;17.33;;
12407;SDS011;6268;48.188;17.134;2023-02-15T04:02:18;25.47;;;18.17;;
12407;SDS011;6268;48.188;17.134;2023-02-15T04:04:51;22.83;;;17.27;;
12407;SDS011;6268;48.188;17.134;2023-02-15T04:07:22;26.93;;;17.77;;
12407;SDS011;6268;48.188;17.134;2023-02-15T04:09:50;23.63;;;17.83;;
12407;SDS011;6268;48.188;17.134;2023-02-15T04:12:51;30.67;;;18.30;;
12407;SDS011;6268;48.188;17.134;2023-02-15T04:15:20;23.37;;;17.67;;
12407;SDS011;6268;48.188;17.134;2023-02-15T04:18:06;22.97;;;16.23;;
12407;SDS011;6268;48.188;17.134;2023-02-15T04:20:35;24.77;;;17.20;;
12407;SDS011;6268;48.188;17.134;2023-02-15T04:23:23;22.20;;;15.90;;
12407;SDS011;6268;48.188;17.134;2023-02-15T04:26:09;20.33;;;15.50;;
12407;SDS011;6268;48.188;17.134;2023-02-15T04:28:38;23.13;;;17.07;;
12407;SDS011;6268;48.188;17.134;2023-02-15T04:31:07;23.70;;;16.73;;
12407;SDS011;6268;48.188;17.134;2023-02-15T04:33:36;25.43;;;16.40;;
12407;SDS011;6268;48.188;17.134;2023-02-15T04:36:05;20.93;;;16.93;;
12407;SDS011;6268;48.188;17.134;2023-02-15T04:38:35;22.93;;;17.57;;
12407;SDS011;6268;48.188;17.134;2023-02-15T04:41:04;20.13;;;14.63;;
12407;SDS011;6268;48.188;17.134;2023-02-15T04:43:32;21.03;;;14.60;;
12407;SDS011;6268;48.188;17.134;2023-02-15T04:46:01;21.00;;;15.40;;
12407;SDS011;6268;48.188;17.134;2023-02-15T04:48:31;30.27;;;18.13;;
12407;SDS011;6268;48.188;17.134;2023-02-15T04:51:04;33.80;;;22.50;;
12407;SDS011;6268;48.188;17.134;2023-02-15T04:53:35;21.50;;;15.93;;
12407;SDS011;6268;48.188;17.134;2023-02-15T04:56:04;21.10;;;15.73;;
12407;SDS011;6268;48.188;17.134;2023-02-15T04:58:33;22.17;;;16.00;;
12407;SDS011;6268;48.188;17.134;2023-02-15T05:01:03;17.40;;;14.10;;
12407;SDS011;6268;48.188;17.134;2023-02-15T05:03:32;16.43;;;13.67;;
12407;SDS011;6268;48.188;17.134;2023-02-15T05:06:01;18.03;;;13.73;;
12407;SDS011;6268;48.188;17.134;2023-02-15T05:08:31;21.00;;;15.47;;
12407;SDS011;6268;48.188;17.134;2023-02-15T05:11:01;24.10;;;16.50;;
12407;SDS011;6268;48.188;17.134;2023-02-15T05:13:31;23.80;;;16.00;;
12407;SDS011;6268;48.188;17.134;2023-02-15T05:16:00;21.20;;;15.40;;
12407;SDS011;6268;48.188;17.134;2023-02-15T05:18:29;23.40;;;16.23;;
12407;SDS011;6268;48.188;17.134;2023-02-15T05:20:58;28.10;;;18.07;;
12407;SDS011;6268;48.188;17.134;2023-02-15T05:23:27;28.30;;;17.93;;
12407;SDS011;6268;48.188;17.134;2023-02-15T05:25:56;23.77;;;17.03;;
12407;SDS011;6268;48.188;17.134;2023-02-15T05:28:44;20.43;;;14.83;;
12407;SDS011;6268;48.188;17.134;2023-02-15T05:31:13;17.80;;;13.80;;
12407;SDS011;6268;48.188;17.134;2023-02-15T05:33:45;18.83;;;14.40;;
12407;SDS011;6268;48.188;17.134;2023-02-15T05:36:14;20.07;;;13.97;;
12407;SDS011;6268;48.188;17.134;2023-02-15T05:38:43;18.73;;;14.20;;
12407;SDS011;6268;48.188;17.134;2023-02-15T05:41:12;25.03;;;16.73;;
12407;SDS011;6268;48.188;17.134;2023-02-15T05:43:41;23.40;;;15.53;;
12407;SDS011;6268;48.188;17.134;2023-02-15T05:46:11;23.13;;;15.87;;
12407;SDS011;6268;48.188;17.134;2023-02-15T05:48:40;20.50;;;15.87;;
12407;SDS011;6268;48.188;17.134;2023-02-15T05:51:10;22.97;;;15.70;;
12407;SDS011;6268;48.188;17.134;2023-02-15T05:53:42;33.93;;;17.93;;
12407;SDS011;6268;48.188;17.134;2023-02-15T05:56:11;23.97;;;18.07;;
12407;SDS011;6268;48.188;17.134;2023-02-15T05:58:40;26.33;;;18.87;;
12407;SDS011;6268;48.188;17.134;2023-02-15T06:01:11;29.20;;;19.53;;
12407;SDS011;6268;48.188;17.134;2023-02-15T06:03:43;29.40;;;18.17;;
12407;SDS011;6268;48.188;17.134;2023-02-15T06:06:13;24.73;;;17.20;;
12407;SDS011;6268;48.188;17.134;2023-02-15T06:08:42;20.80;;;16.80;;
12407;SDS011;6268;48.188;17.134;2023-02-15T06:11:11;23.63;;;16.57;;
12407;SDS011;6268;48.188;17.134;2023-02-15T06:13:39;20.40;;;15.13;;
12407;SDS011;6268;48.188;17.134;2023-02-15T06:16:08;21.10;;;15.67;;
12407;SDS011;6268;48.188;17.134;2023-02-15T06:18:39;19.47;;;14.63;;
12407;SDS011;6268;48.188;17.134;2023-02-15T06:21:07;20.80;;;14.77;;
12407;SDS011;6268;48.188;17.134;2023-02-15T06:23:36;18.03;;;14.23;;
12407;SDS011;6268;48.188;17.134;2023-02-15T06:26:05;26.30;;;18.40;;
12407;SDS011;6268;48.188;17.134;2023-02-15T06:28:34;29.40;;;19.37;;
12407;SDS011;6268;48.188;17.134;2023-02-15T06:31:03;18.90;;;14.87;;
12407;SDS011;6268;48.188;17.134;2023-02-15T06:33:34;20.17;;;15.00;;
12407;SDS011;6268;48.188;17.134;2023-02-15T06:36:03;17.53;;;15.17;;
12407;SDS011;6268;48.188;17.134;2023-02-15T06:38:32;18.30;;;14.93;;
12407;SDS011;6268;48.188;17.134;2023-02-15T06:41:01;16.87;;;14.50;;
12407;SDS011;6268;48.188;17.134;2023-02-15T06:43:30;20.77;;;16.40;;
12407;SDS011;6268;48.188;17.134;2023-02-15T06:46:00;20.10;;;16.27;;
12407;SDS011;6268;48.188;17.134;2023-02-15T06:48:29;19.03;;;15.40;;
12407;SDS011;6268;48.188;17.134;2023-02-15T06:51:00;18.90;;;16.77;;
12407;SDS011;6268;48.188;17.134;2023-02-15T06:53:29;21.13;;;16.00;;
12407;SDS011;6268;48.188;17.134;2023-02-15T06:56:00;18.13;;;15.63;;
12407;SDS011;6268;48.188;17.134;2023-02-15T06:58:33;17.83;;;15.23;;
12407;SDS011;6268;48.188;17.134;2023-02-15T07:01:02;16.40;;;14.70;;
12407;SDS011;6268;48.188;17.134;2023-02-15T07:03:31;16.10;;;14.50;;
12407;SDS011;6268;48.188;17.134;2023-02-15T07:06:03;19.50;;;16.87;;
12407;SDS011;6268;48.188;17.134;2023-02-15T07:08:35;18.30;;;15.60;;
12407;SDS011;6268;48.188;17.134;2023-02-15T07:11:05;17.25;;;15.02;;
12407;SDS011;6268;48.188;17.134;2023-02-15T07:13:52;18.25;;;15.73;;
12407;SDS011;6268;48.188;17.134;2023-02-15T07:16:21;18.55;;;16.60;;
12407;SDS011;6268;48.188;17.134;2023-02-15T07:18:50;19.17;;;16.33;;
12407;SDS011;6268;48.188;17.134;2023-02-15T07:21:20;22.48;;;17.27;;
12407;SDS011;6268;48.188;17.134;2023-02-15T07:23:49;20.20;;;17.13;;
12407;SDS011;6268;48.188;17.134;2023-02-15T07:26:17;19.52;;;17.35;;
12407;SDS011;6268;48.188;17.134;2023-02-15T07:28:46;21.13;;;18.70;;
12407;SDS011;6268;48.188;17.134;2023-02-15T07:31:15;21.05;;;17.83;;
12407;SDS011;6268;48.188;17.134;2023-02-15T07:33:44;23.90;;;18.40;;
12407;SDS011;6268;48.188;17.134;2023-02-15T07:36:13;21.17;;;18.30;;
12407;SDS011;6268;48.188;17.134;2023-02-15T07:38:43;20.15;;;17.92;;
12407;SDS011;6268;48.188;17.134;2023-02-15T07:41:14;20.95;;;17.42;;
12407;SDS011;6268;48.188;17.134;2023-02-15T07:43:44;22.17;;;18.17;;
12407;SDS011;6268;48.188;17.134;2023-02-15T07:46:14;20.42;;;17.30;;
12407;SDS011;6268;48.188;17.134;2023-02-15T07:48:44;20.88;;;17.33;;
12407;SDS011;6268;48.188;17.134;2023-02-15T07:51:14;20.90;;;17.75;;
12407;SDS011;6268;48.188;17.134;2023-02-15T07:53:45;20.70;;;18.48;;
12407;SDS011;6268;48.188;17.134;2023-02-15T07:56:14;22.58;;;18.98;;
12407;SDS011;6268;48.188;17.134;2023-02-15T07:58:43;25.27;;;22.23;;
12407;SDS011;6268;48.188;17.134;2023-02-15T08:01:19;25.95;;;21.50;;
12407;SDS011;6268;48.188;17.134;2023-02-15T08:03:50;25.40;;;20.75;;
12407;SDS011;6268;48.188;17.134;2023-02-15T08:06:20;23.92;;;20.08;;
12407;SDS011;6268;48.188;17.134;2023-02-15T08:08:52;24.67;;;20.63;;
12407;SDS011;6268;48.188;17.134;2023-02-15T08:11:21;27.05;;;24.13;;
12407;SDS011;6268;48.188;17.134;2023-02-15T08:14:00;25.95;;;23.15;;
12407;SDS011;6268;48.188;17.134;2023-02-15T08:16:32;27.85;;;22.92;;
12407;SDS011;6268;48.188;17.134;2023-02-15T08:19:04;27.05;;;24.15;;
12407;SDS011;6268;48.188;17.134;2023-02-15T08:21:36;27.15;;;23.65;;
12407;SDS011;6268;48.188;17.134;2023-02-15T08:24:08;28.23;;;25.08;;
12407;SDS011;6268;48.188;17.134;2023-02-15T08:26:40;27.30;;;24.35;;
12407;SDS011;6268;48.188;17.134;2023-02-15T08:29:11;26.35;;;23.55;;
12407;SDS011;6268;48.188;17.134;2023-02-15T08:31:42;27.23;;;24.33;;
12407;SDS011;6268;48.188;17.134;2023-02-15T08:34:13;28.02;;;25.02;;
12407;SDS011;6268;48.188;17.134;2023-02-15T08:36:44;29.67;;;23.90;;
12407;SDS011;6268;48.188;17.134;2023-02-15T08:39:16;28.55;;;25.45;;
12407;SDS011;6268;48.188;17.134;2023-02-15T08:41:45;30.27;;;25.80;;
12407;SDS011;6268;48.188;17.134;2023-02-15T08:44:16;28.83;;;25.67;;
12407;SDS011;6268;48.188;17.134;2023-02-15T08:46:47;29.83;;;26.50;;
12407;SDS011;6268;48.188;17.134;2023-02-15T08:49:17;30.43;;;25.63;;
12407;SDS011;6268;48.188;17.134;2023-02-15T08:51:48;30.73;;;26.47;;
12407;SDS011;6268;48.188;17.134;2023-02-15T08:54:20;32.30;;;27.87;;
12407;SDS011;6268;48.188;17.134;2023-02-15T08:56:49;32.20;;;26.83;;
12407;SDS011;6268;48.188;17.134;2023-02-15T08:59:19;29.93;;;25.53;;
12407;SDS011;6268;48.188;17.134;2023-02-15T09:01:51;29.33;;;25.73;;
12407;SDS011;6268;48.188;17.134;2023-02-15T09:04:20;29.90;;;25.87;;
12407;SDS011;6268;48.188;17.134;2023-02-15T09:06:49;32.00;;;26.87;;
12407;SDS011;6268;48.188;17.134;2023-02-15T09:09:20;30.23;;;25.53;;
12407;SDS011;6268;48.188;17.134;2023-02-15T09:11:50;33.93;;;27.90;;
12407;SDS011;6268;48.188;17.134;2023-02-15T09:14:25;33.47;;;27.23;;
12407;SDS011;6268;48.188;17.134;2023-02-15T09:16:55;33.60;;;26.87;;
12407;SDS011;6268;48.188;17.134;2023-02-15T09:19:24;33.90;;;27.87;;
12407;SDS011;6268;48.188;17.134;2023-02-15T09:21:53;31.20;;;27.80;;
12407;SDS011;6268;48.188;17.134;2023-02-15T09:24:23;37.27;;;28.67;;
12407;SDS011;6268;48.188;17.134;2023-02-15T09:26:52;34.13;;;28.47;;
12407;SDS011;6268;48.188;17.134;2023-02-15T09:29:21;35.20;;;28.07;;
12407;SDS011;6268;48.188;17.134;2023-02-15T09:31:50;33.47;;;27.33;;
12407;SDS011;6268;48.188;17.134;2023-02-15T09:34:20;31.97;;;27.00;;
12407;SDS011;6268;48.188;17.134;2023-02-15T09:36:51;34.53;;;27.83;;
12407;SDS011;6268;48.188;17.134;2023-02-15T09:39:20;34.40;;;28.17;;
12407;SDS011;6268;48.188;17.134;2023-02-15T09:42:00;35.07;;;27.07;;
12407;SDS011;6268;48.188;17.134;2023-02-15T09:44:52;35.27;;;27.07;;
12407;SDS011;6268;48.188;17.134;2023-02-15T09:48:03;35.50;;;28.20;;
12407;SDS011;6268;48.188;17.134;2023-02-15T09:51:01;31.63;;;26.37;;
12407;SDS011;6268;48.188;17.134;2023-02-15T09:57:14;31.03;;;26.10;;
12407;SDS011;6268;48.188;17.134;2023-02-15T09:59:52;34.77;;;26.97;;
12407;SDS011;6268;48.188;17.134;2023-02-15T10:02:39;34.40;;;27.77;;
12407;SDS011;6268;48.188;17.134;2023-02-15T10:05:34;35.60;;;27.30;;
12407;SDS011;6268;48.188;17.134;2023-02-15T10:08:21;36.60;;;28.30;;
12407;SDS011;6268;48.188;17.134;2023-02-15T10:11:14;34.57;;;28.50;;
12407;SDS011;6268;48.188;17.134;2023-02-15T10:14:12;33.60;;;27.53;;
12407;SDS011;6268;48.188;17.134;2023-02-15T10:17:08;33.77;;;27.20;;
12407;SDS011;6268;48.188;17.134;2023-02-15T10:19:53;35.40;;;29.03;;
12407;SDS011;6268;48.188;17.134;2023-02-15T10:22:41;33.23;;;27.73;;
12407;SDS011;6268;48.188;17.134;2023-02-15T10:25:37;34.23;;;28.30;;
12407;SDS011;6268;48.188;17.134;2023-02-15T10:28:17;36.03;;;27.37;;
12407;SDS011;6268;48.188;17.134;2023-02-15T10:30:51;34.57;;;27.37;;
12407;SDS011;6268;48.188;17.134;2023-02-15T10:33:38;30.83;;;27.27;;
12407;SDS011;6268;48.188;17.134;2023-02-15T10:36:16;33.40;;;27.17;;
12407;SDS011;6268;48.188;17.134;2023-02-15T10:39:06;30.10;;;25.67;;
12407;SDS011;6268;48.188;17.134;2023-02-15T10:41:46;31.37;;;25.50;;
12407;SDS011;6268;48.188;17.134;2023-02-15T10:44:34;31.57;;;25.17;;
12407;SDS011;6268;48.188;17.134;2023-02-15T10:47:35;33.83;;;28.50;;
12407;SDS011;6268;48.188;17.134;2023-02-15T10:50:46;34.23;;;27.70;;
12407;SDS011;6268;48.188;17.134;2023-02-15T10:53:34;29.87;;;25.43;;
12407;SDS011;6268;48.188;17.134;2023-02-15T10:56:30;33.70;;;28.00;;
12407;SDS011;6268;48.188;17.134;2023-02-15T11:02:27;36.70;;;29.90;;
12407;SDS011;6268;48.188;17.134;2023-02-15T11:05:31;39.43;;;29.93;;
12407;SDS011;6268;48.188;17.134;2023-02-15T11:08:09;31.40;;;27.57;;
12407;SDS011;6268;48.188;17.134;2023-02-15T11:10:40;38.50;;;29.33;;
12407;SDS011;6268;48.188;17.134;2023-02-15T11:13:17;37.23;;;30.20;;
12407;SDS011;6268;48.188;17.134;2023-02-15T11:15:53;34.97;;;30.13;;
12407;SDS011;6268;48.188;17.134;2023-02-15T11:18:27;35.07;;;28.47;;
12407;SDS011;6268;48.188;17.134;2023-02-15T11:21:04;34.37;;;28.53;;
12407;SDS011;6268;48.188;17.134;2023-02-15T11:23:42;31.13;;;25.53;;
12407;SDS011;6268;48.188;17.134;2023-02-15T11:26:13;30.33;;;26.40;;
12407;SDS011;6268;48.188;17.134;2023-02-15T11:28:51;32.60;;;27.00;;
12407;SDS011;6268;48.188;17.134;2023-02-15T11:31:26;32.90;;;28.27;;
12407;SDS011;6268;48.188;17.134;2023-02-15T11:34:12;35.83;;;27.87;;
12407;SDS011;6268;48.188;17.134;2023-02-15T11:36:48;35.60;;;29.07;;
12407;SDS011;6268;48.188;17.134;2023-02-15T11:39:21;40.33;;;31.60;;
12407;SDS011;6268;48.188;17.134;2023-02-15T11:41:55;38.57;;;30.40;;
12407;SDS011;6268;48.188;17.134;2023-02-15T11:44:30;39.43;;;31.30;;
12407;SDS011;6268;48.188;17.134;2023-02-15T11:47:08;42.70;;;32.40;;
12407;SDS011;6268;48.188;17.134;2023-02-15T11:49:39;42.73;;;32.10;;
12407;SDS011;6268;48.188;17.134;2023-02-15T11:52:10;53.33;;;41.20;;
12407;SDS011;6268;48.188;17.134;2023-02-15T11:54:43;38.90;;;30.23;;
12407;SDS011;6268;48.188;17.134;2023-02-15T11:57:17;35.87;;;30.30;;
12407;SDS011;6268;48.188;17.134;2023-02-15T11:59:56;38.83;;;32.27;;
12407;SDS011;6268;48.188;17.134;2023-02-15T12:02:32;49.30;;;35.77;;
12407;SDS011;6268;48.188;17.134;2023-02-15T12:05:07;40.20;;;32.47;;
12407;SDS011;6268;48.188;17.134;2023-02-15T12:07:43;40.60;;;31.97;;
12407;SDS011;6268;48.188;17.134;2023-02-15T12:10:19;46.10;;;35.37;;
12407;SDS011;6268;48.188;17.134;2023-02-15T12:13:08;47.87;;;36.00;;
12407;SDS011;6268;48.188;17.134;2023-02-15T12:15:40;66.67;;;47.27;;
12407;SDS011;6268;48.188;17.134;2023-02-15T12:18:24;64.53;;;47.17;;
12407;SDS011;6268;48.188;17.134;2023-02-15T12:21:07;46.60;;;35.43;;
12407;SDS011;6268;48.188;17.134;2023-02-15T12:23:41;53.13;;;36.70;;
12407;SDS011;6268;48.188;17.134;2023-02-15T12:26:22;52.17;;;39.33;;
12407;SDS011;6268;48.188;17.134;2023-02-15T12:28:53;56.20;;;41.53;;
12407;SDS011;6268;48.188;17.134;2023-02-15T12:31:30;60.27;;;44.30;;
12407;SDS011;6268;48.188;17.134;2023-02-15T12:34:09;75.07;;;53.57;;
12407;SDS011;6268;48.188;17.134;2023-02-15T12:36:48;66.33;;;45.50;;
12407;SDS011;6268;48.188;17.134;2023-02-15T12:39:24;59.30;;;42.93;;
12407;SDS011;6268;48.188;17.134;2023-02-15T12:41:57;72.33;;;49.20;;
12407;SDS011;6268;48.188;17.134;2023-02-15T12:44:33;73.93;;;51.37;;
12407;SDS011;6268;48.188;17.134;2023-02-15T12:47:04;70.23;;;48.63;;
12407;SDS011;6268;48.188;17.134;2023-02-15T12:50:03;59.80;;;41.97;;
12407;SDS011;6268;48.188;17.134;2023-02-15T12:53:05;68.33;;;47.93;;
12407;SDS011;6268;48.188;17.134;2023-02-15T12:55:49;60.70;;;45.23;;
12407;SDS011;6268;48.188;17.134;2023-02-15T12:58:20;72.10;;;50.67;;
12407;SDS011;6268;48.188;17.134;2023-02-15T13:01:02;75.17;;;52.33;;
12407;SDS011;6268;48.188;17.134;2023-02-15T13:03:49;70.60;;;49.07;;
12407;SDS011;6268;48.188;17.134;2023-02-15T13:06:27;103.97;;;70.43;;
12407;SDS011;6268;48.188;17.134;2023-02-15T13:09:05;66.13;;;46.10;;
12407;SDS011;6268;48.188;17.134;2023-02-15T13:11:43;55.07;;;39.50;;
12407;SDS011;6268;48.188;17.134;2023-02-15T13:14:16;57.67;;;42.43;;
12407;SDS011;6268;48.188;17.134;2023-02-15T13:16:48;59.03;;;41.17;;
12407;SDS011;6268;48.188;17.134;2023-02-15T13:19:22;61.63;;;43.47;;
12407;SDS011;6268;48.188;17.134;2023-02-15T13:22:07;66.00;;;46.13;;
12407;SDS011;6268;48.188;17.134;2023-02-15T13:24:43;61.23;;;44.50;;
12407;SDS011;6268;48.188;17.134;2023-02-15T13:27:17;61.53;;;45.07;;
12407;SDS011;6268;48.188;17.134;2023-02-15T13:29:51;52.63;;;38.67;;
12407;SDS011;6268;48.188;17.134;2023-02-15T13:32:26;51.77;;;39.60;;
12407;SDS011;6268;48.188;17.134;2023-02-15T13:34:59;47.67;;;35.27;;
12407;SDS011;6268;48.188;17.134;2023-02-15T13:37:45;47.17;;;36.43;;
12407;SDS011;6268;48.188;17.134;2023-02-15T13:40:40;54.60;;;40.10;;
12407;SDS011;6268;48.188;17.134;2023-02-15T13:43:20;56.67;;;41.37;;
12407;SDS011;6268;48.188;17.134;2023-02-15T13:46:16;49.70;;;38.00;;
12407;SDS011;6268;48.188;17.134;2023-02-15T13:49:02;52.57;;;38.20;;
12407;SDS011;6268;48.188;17.134;2023-02-15T13:51:48;64.17;;;47.23;;
12407;SDS011;6268;48.188;17.134;2023-02-15T13:54:35;51.77;;;41.07;;
12407;SDS011;6268;48.188;17.134;2023-02-15T13:57:28;50.97;;;39.00;;
12407;SDS011;6268;48.188;17.134;2023-02-15T14:00:26;46.30;;;34.83;;
12407;SDS011;6268;48.188;17.134;2023-02-15T14:03:31;41.67;;;33.10;;
12407;SDS011;6268;48.188;17.134;2023-02-15T14:09:56;47.07;;;34.90;;
12407;SDS011;6268;48.188;17.134;2023-02-15T14:12:50;44.83;;;35.17;;
12407;SDS011;6268;48.188;17.134;2023-02-15T14:15:45;45.90;;;35.63;;
12407;SDS011;6268;48.188;17.134;2023-02-15T14:18:23;42.87;;;32.90;;
12407;SDS011;6268;48.188;17.134;2023-02-15T14:21:04;45.43;;;35.70;;
12407;SDS011;6268;48.188;17.134;2023-02-15T14:23:45;43.53;;;34.17;;
12407;SDS011;6268;48.188;17.134;2023-02-15T14:26:34;47.60;;;34.97;;
12407;SDS011;6268;48.188;17.134;2023-02-15T14:29:16;45.93;;;36.23;;
12407;SDS011;6268;48.188;17.134;2023-02-15T14:31:57;44.57;;;35.80;;
12407;SDS011;6268;48.188;17.134;2023-02-15T14:34:36;46.00;;;35.10;;
12407;SDS011;6268;48.188;17.134;2023-02-15T14:37:17;44.20;;;36.07;;
12407;SDS011;6268;48.188;17.134;2023-02-15T14:39:58;42.33;;;33.30;;
12407;SDS011;6268;48.188;17.134;2023-02-15T14:42:53;45.03;;;34.47;;
12407;SDS011;6268;48.188;17.134;2023-02-15T14:45:30;47.87;;;35.77;;
12407;SDS011;6268;48.188;17.134;2023-02-15T14:48:11;49.23;;;36.50;;
12407;SDS011;6268;48.188;17.134;2023-02-15T14:50:48;48.53;;;36.97;;
12407;SDS011;6268;48.188;17.134;2023-02-15T14:56:19;46.67;;;35.50;;
12407;SDS011;6268;48.188;17.134;2023-02-15T15:01:55;46.87;;;34.83;;
12407;SDS011;6268;48.188;17.134;2023-02-15T15:04:31;56.97;;;36.60;;
12407;SDS011;6268;48.188;17.134;2023-02-15T15:07:08;46.20;;;35.63;;
12407;SDS011;6268;48.188;17.134;2023-02-15T15:09:48;50.63;;;37.07;;
12407;SDS011;6268;48.188;17.134;2023-02-15T15:12:37;47.77;;;36.77;;
12407;SDS011;6268;48.188;17.134;2023-02-15T15:15:12;50.00;;;37.70;;
12407;SDS011;6268;48.188;17.134;2023-02-15T15:18:00;47.40;;;37.37;;
12407;SDS011;6268;48.188;17.134;2023-02-15T15:23:38;48.70;;;37.13;;
12407;SDS011;6268;48.188;17.134;2023-02-15T15:26:25;46.07;;;37.00;;
12407;SDS011;6268;48.188;17.134;2023-02-15T15:29:00;47.07;;;36.10;;
12407;SDS011;6268;48.188;17.134;2023-02-15T15:31:48;49.20;;;36.57;;
12407;SDS011;6268;48.188;17.134;2023-02-15T15:34:42;47.53;;;37.30;;